RYR7835 LTFM-LGSK
Flight info
| Callsign | RYR7835 |
|---|---|
| Flight time | 1h 2m |
| Altitude | 34000 |
| Route | BARPE UG12 GOLDO UM603 TSL UL617 IBIDI |
| Aircraft | B738/M-SDE2E3FGHIRWXY/LB1 |
Departure
| Time | 2026-04-24 20:44 |
|---|---|
| Airport | İstanbul Airport (LTFM) |
Arrival
| Time | 2026-04-24 21:47 |
|---|---|
| Airport | Skiathos Island National Airport (LGSK) |
| Time | Latitude | Longitude | Altitude | Speed | Heading |
|---|---|---|---|---|---|
| 2026-04-24 20:24 | 41.26673 | 28.74139 | 333 ft | 0 kts | 91° |
| 2026-04-24 20:28 | 41.26673 | 28.74135 | 333 ft | 1 kts | 91° |
| 2026-04-24 20:29 | 41.26674 | 28.74125 | 329 ft | 1 kts | 91° |
| 2026-04-24 20:29 | 41.26674 | 28.74115 | 329 ft | 1 kts | 91° |
| 2026-04-24 20:29 | 41.26674 | 28.74105 | 332 ft | 1 kts | 91° |
| 2026-04-24 20:29 | 41.26674 | 28.74096 | 331 ft | 1 kts | 91° |
| 2026-04-24 20:30 | 41.26674 | 28.74086 | 317 ft | 1 kts | 91° |
| 2026-04-24 20:30 | 41.26675 | 28.74076 | 323 ft | 1 kts | 91° |
| 2026-04-24 20:30 | 41.26675 | 28.74067 | 316 ft | 1 kts | 91° |
| 2026-04-24 20:30 | 41.26675 | 28.74057 | 330 ft | 1 kts | 91° |
| 2026-04-24 20:31 | 41.26675 | 28.74047 | 330 ft | 1 kts | 87° |
| 2026-04-24 20:31 | 41.26675 | 28.74038 | 330 ft | 1 kts | 75° |
| 2026-04-24 20:31 | 41.26672 | 28.74029 | 330 ft | 1 kts | 58° |
| 2026-04-24 20:31 | 41.26669 | 28.74022 | 328 ft | 0 kts | 354° |
| 2026-04-24 20:35 | 41.26678 | 28.74022 | 331 ft | 3 kts | 358° |
| 2026-04-24 20:35 | 41.26724 | 28.74020 | 329 ft | 10 kts | 359° |
| 2026-04-24 20:35 | 41.26808 | 28.74019 | 331 ft | 14 kts | 359° |
| 2026-04-24 20:36 | 41.26912 | 28.74016 | 332 ft | 14 kts | 360° |
| 2026-04-24 20:36 | 41.27009 | 28.74015 | 332 ft | 12 kts | 356° |
| 2026-04-24 20:36 | 41.27052 | 28.73939 | 333 ft | 12 kts | 270° |
| 2026-04-24 20:36 | 41.27051 | 28.73832 | 333 ft | 12 kts | 269° |
| 2026-04-24 20:37 | 41.27050 | 28.73704 | 333 ft | 16 kts | 269° |
| 2026-04-24 20:37 | 41.27047 | 28.73538 | 332 ft | 20 kts | 269° |
| 2026-04-24 20:37 | 41.27045 | 28.73336 | 330 ft | 24 kts | 268° |
| 2026-04-24 20:37 | 41.27042 | 28.73156 | 333 ft | 10 kts | 269° |
| 2026-04-24 20:38 | 41.27041 | 28.73045 | 333 ft | 14 kts | 272° |
| 2026-04-24 20:38 | 41.27122 | 28.72984 | 330 ft | 17 kts | 359° |
| 2026-04-24 20:38 | 41.27257 | 28.72980 | 332 ft | 21 kts | 360° |
| 2026-04-24 20:38 | 41.27419 | 28.72976 | 332 ft | 25 kts | 359° |
| 2026-04-24 20:39 | 41.27605 | 28.72973 | 329 ft | 28 kts | 359° |
| 2026-04-24 20:39 | 41.27803 | 28.72968 | 333 ft | 28 kts | 359° |
| 2026-04-24 20:39 | 41.27991 | 28.72963 | 331 ft | 26 kts | 359° |
| 2026-04-24 20:39 | 41.28168 | 28.72959 | 332 ft | 25 kts | 359° |
| 2026-04-24 20:40 | 41.28351 | 28.72955 | 331 ft | 28 kts | 359° |
| 2026-04-24 20:40 | 41.28556 | 28.72950 | 332 ft | 31 kts | 359° |
| 2026-04-24 20:40 | 41.28782 | 28.72945 | 332 ft | 33 kts | 359° |
| 2026-04-24 20:40 | 41.29005 | 28.72940 | 330 ft | 31 kts | 359° |
| 2026-04-24 20:41 | 41.29219 | 28.72934 | 332 ft | 30 kts | 359° |
| 2026-04-24 20:41 | 41.29413 | 28.72930 | 333 ft | 14 kts | 359° |
| 2026-04-24 20:41 | 41.29488 | 28.72892 | 332 ft | 12 kts | 294° |
| 2026-04-24 20:41 | 41.29491 | 28.72780 | 331 ft | 12 kts | 268° |
| 2026-04-24 20:42 | 41.29489 | 28.72671 | 333 ft | 12 kts | 268° |
| 2026-04-24 20:42 | 41.29488 | 28.72564 | 333 ft | 11 kts | 269° |
| 2026-04-24 20:42 | 41.29474 | 28.72466 | 332 ft | 9 kts | 230° |
| 2026-04-24 20:42 | 41.29431 | 28.72451 | 333 ft | 0 kts | 179° |
| 2026-04-24 20:43 | 41.29429 | 28.72451 | 333 ft | 0 kts | 179° |
| 2026-04-24 20:43 | 41.29425 | 28.72451 | 333 ft | 1 kts | 179° |
| 2026-04-24 20:43 | 41.29415 | 28.72451 | 333 ft | 6 kts | 179° |
| 2026-04-24 20:43 | 41.29100 | 28.72457 | 332 ft | 85 kts | 179° |
| 2026-04-24 20:44 | 41.28263 | 28.72473 | 330 ft | 153 kts | 179° |
| 2026-04-24 20:44 | 41.27033 | 28.72496 | 595 ft | 192 kts | 179° |
| 2026-04-24 20:44 | 41.25601 | 28.72518 | 1073 ft | 219 kts | 180° |
| 2026-04-24 20:44 | 41.23979 | 28.72550 | 1405 ft | 248 kts | 178° |
| 2026-04-24 20:45 | 41.22231 | 28.72662 | 1726 ft | 245 kts | 177° |
| 2026-04-24 20:45 | 41.20563 | 28.72778 | 2234 ft | 238 kts | 177° |
| 2026-04-24 20:45 | 41.18907 | 28.72833 | 2726 ft | 240 kts | 187° |
| 2026-04-24 20:45 | 41.17373 | 28.71979 | 3236 ft | 243 kts | 216° |
| 2026-04-24 20:46 | 41.16077 | 28.70519 | 3737 ft | 247 kts | 223° |
| 2026-04-24 20:46 | 41.14810 | 28.68949 | 4238 ft | 251 kts | 223° |
| 2026-04-24 20:46 | 41.13520 | 28.67361 | 4748 ft | 255 kts | 223° |
| 2026-04-24 20:46 | 41.12300 | 28.65643 | 5212 ft | 259 kts | 240° |
| 2026-04-24 20:47 | 41.11663 | 28.63430 | 5713 ft | 264 kts | 258° |
| 2026-04-24 20:47 | 41.11248 | 28.61007 | 6230 ft | 275 kts | 259° |
| 2026-04-24 20:47 | 41.10832 | 28.58480 | 6762 ft | 285 kts | 259° |
| 2026-04-24 20:47 | 41.10398 | 28.55866 | 7273 ft | 295 kts | 259° |
| 2026-04-24 20:48 | 41.09942 | 28.53170 | 7799 ft | 304 kts | 259° |
| 2026-04-24 20:48 | 41.09466 | 28.50395 | 8321 ft | 313 kts | 259° |
| 2026-04-24 20:48 | 41.08970 | 28.47531 | 8864 ft | 322 kts | 259° |
| 2026-04-24 20:48 | 41.08464 | 28.44628 | 9393 ft | 331 kts | 259° |
| 2026-04-24 20:49 | 41.07937 | 28.41616 | 9929 ft | 339 kts | 259° |
| 2026-04-24 20:49 | 41.07399 | 28.38541 | 10413 ft | 346 kts | 259° |
| 2026-04-24 20:49 | 41.06848 | 28.35402 | 10911 ft | 353 kts | 259° |
| 2026-04-24 20:49 | 41.06285 | 28.32203 | 11412 ft | 358 kts | 259° |
| 2026-04-24 20:50 | 41.05717 | 28.28981 | 11911 ft | 359 kts | 259° |
| 2026-04-24 20:50 | 41.05145 | 28.25745 | 12422 ft | 361 kts | 259° |
| 2026-04-24 20:50 | 41.04567 | 28.22474 | 12950 ft | 367 kts | 259° |
| 2026-04-24 20:50 | 41.03980 | 28.19158 | 13483 ft | 372 kts | 259° |
| 2026-04-24 20:51 | 41.03384 | 28.15796 | 14005 ft | 377 kts | 258° |
| 2026-04-24 20:51 | 41.02787 | 28.12436 | 14482 ft | 382 kts | 258° |
| 2026-04-24 20:51 | 41.02172 | 28.08984 | 14970 ft | 386 kts | 258° |
| 2026-04-24 20:51 | 41.01550 | 28.05500 | 15465 ft | 390 kts | 258° |
| 2026-04-24 20:52 | 41.00922 | 28.01981 | 15963 ft | 393 kts | 258° |
| 2026-04-24 20:52 | 41.00295 | 27.98482 | 16468 ft | 396 kts | 258° |
| 2026-04-24 20:52 | 40.99656 | 27.94916 | 16983 ft | 399 kts | 258° |
| 2026-04-24 20:52 | 40.99011 | 27.91324 | 17503 ft | 401 kts | 258° |
| 2026-04-24 20:53 | 40.98362 | 27.87721 | 18034 ft | 403 kts | 258° |
| 2026-04-24 20:53 | 40.97710 | 27.84103 | 18540 ft | 405 kts | 258° |
| 2026-04-24 20:53 | 40.97053 | 27.80469 | 19010 ft | 407 kts | 258° |
| 2026-04-24 20:53 | 40.96391 | 27.76820 | 19471 ft | 408 kts | 258° |
| 2026-04-24 20:54 | 40.95727 | 27.73165 | 19959 ft | 409 kts | 258° |
| 2026-04-24 20:54 | 40.95060 | 27.69500 | 20448 ft | 410 kts | 258° |
| 2026-04-24 20:54 | 40.94392 | 27.65834 | 20944 ft | 410 kts | 258° |
| 2026-04-24 20:54 | 40.93723 | 27.62169 | 21445 ft | 410 kts | 258° |
| 2026-04-24 20:55 | 40.93059 | 27.58540 | 21949 ft | 410 kts | 258° |
| 2026-04-24 20:55 | 40.92388 | 27.54874 | 22471 ft | 410 kts | 258° |
| 2026-04-24 20:55 | 40.91713 | 27.51197 | 22926 ft | 412 kts | 258° |
| 2026-04-24 20:55 | 40.91036 | 27.47512 | 23389 ft | 413 kts | 258° |
| 2026-04-24 20:56 | 40.90355 | 27.43815 | 23808 ft | 414 kts | 258° |
| 2026-04-24 20:56 | 40.89671 | 27.40105 | 24205 ft | 415 kts | 258° |
| 2026-04-24 20:56 | 40.88985 | 27.36397 | 24600 ft | 415 kts | 258° |
| 2026-04-24 20:56 | 40.88568 | 27.32636 | 24969 ft | 413 kts | 274° |
| 2026-04-24 20:57 | 40.88916 | 27.28905 | 25417 ft | 409 kts | 281° |
| 2026-04-24 20:57 | 40.89384 | 27.25195 | 25820 ft | 409 kts | 282° |
| 2026-04-24 20:57 | 40.89846 | 27.21536 | 26231 ft | 408 kts | 282° |
| 2026-04-24 20:57 | 40.90300 | 27.17825 | 26654 ft | 408 kts | 282° |
| 2026-04-24 20:58 | 40.90738 | 27.14119 | 27080 ft | 407 kts | 281° |
| 2026-04-24 20:58 | 40.91165 | 27.10421 | 27512 ft | 406 kts | 281° |
| 2026-04-24 20:58 | 40.91589 | 27.06716 | 27839 ft | 408 kts | 281° |
| 2026-04-24 20:58 | 40.92013 | 27.02991 | 28158 ft | 410 kts | 281° |
| 2026-04-24 20:59 | 40.92432 | 26.99301 | 28485 ft | 411 kts | 281° |
| 2026-04-24 20:59 | 40.92635 | 26.95515 | 28751 ft | 417 kts | 270° |
| 2026-04-24 20:59 | 40.92453 | 26.91670 | 29079 ft | 419 kts | 268° |
| 2026-04-24 20:59 | 40.92182 | 26.87820 | 29450 ft | 419 kts | 267° |
| 2026-04-24 21:00 | 40.91896 | 26.83982 | 29805 ft | 420 kts | 267° |
| 2026-04-24 21:00 | 40.91622 | 26.80139 | 30063 ft | 422 kts | 267° |
| 2026-04-24 21:00 | 40.91111 | 26.72234 | 30044 ft | 440 kts | 268° |
| 2026-04-24 21:01 | 40.90616 | 26.64024 | 30044 ft | 456 kts | 268° |
| 2026-04-24 21:01 | 40.90108 | 26.55569 | 30045 ft | 471 kts | 268° |
| 2026-04-24 21:02 | 40.89572 | 26.46807 | 30042 ft | 484 kts | 267° |
| 2026-04-24 21:02 | 40.89015 | 26.37828 | 30040 ft | 496 kts | 267° |
| 2026-04-24 21:03 | 40.88438 | 26.28644 | 30033 ft | 505 kts | 267° |
| 2026-04-24 21:03 | 40.87763 | 26.19392 | 30011 ft | 504 kts | 264° |
| 2026-04-24 21:04 | 40.86830 | 26.10218 | 30020 ft | 503 kts | 264° |
| 2026-04-24 21:04 | 40.85918 | 26.01106 | 30019 ft | 503 kts | 264° |
| 2026-04-24 21:05 | 40.85006 | 25.91926 | 30024 ft | 504 kts | 263° |
| 2026-04-24 21:05 | 40.83893 | 25.82739 | 30022 ft | 506 kts | 262° |
| 2026-04-24 21:06 | 40.82740 | 25.73550 | 30023 ft | 507 kts | 262° |
| 2026-04-24 21:06 | 40.81619 | 25.64426 | 30020 ft | 506 kts | 262° |
| 2026-04-24 21:07 | 40.80496 | 25.55232 | 30022 ft | 506 kts | 262° |
| 2026-04-24 21:07 | 40.79366 | 25.46047 | 30023 ft | 506 kts | 262° |
| 2026-04-24 21:08 | 40.78213 | 25.36866 | 30023 ft | 507 kts | 262° |
| 2026-04-24 21:08 | 40.77040 | 25.27737 | 30021 ft | 507 kts | 262° |
| 2026-04-24 21:09 | 40.75857 | 25.18557 | 30024 ft | 508 kts | 262° |
| 2026-04-24 21:09 | 40.74666 | 25.09348 | 29889 ft | 510 kts | 262° |
| 2026-04-24 21:10 | 40.74069 | 25.04744 | 29730 ft | 509 kts | 262° |
| 2026-04-24 21:10 | 40.73476 | 25.00150 | 29575 ft | 508 kts | 262° |
| 2026-04-24 21:10 | 40.72884 | 24.95554 | 29421 ft | 507 kts | 262° |
| 2026-04-24 21:10 | 40.72302 | 24.91045 | 29249 ft | 508 kts | 262° |
| 2026-04-24 21:11 | 40.71696 | 24.86368 | 29045 ft | 509 kts | 262° |
| 2026-04-24 21:11 | 40.71104 | 24.81816 | 28859 ft | 509 kts | 261° |
| 2026-04-24 21:11 | 40.70504 | 24.77221 | 28673 ft | 509 kts | 261° |
| 2026-04-24 21:11 | 40.69899 | 24.72610 | 28495 ft | 509 kts | 261° |
| 2026-04-24 21:12 | 40.69292 | 24.68009 | 28296 ft | 509 kts | 261° |
| 2026-04-24 21:12 | 40.68890 | 24.64972 | 28161 ft | 508 kts | 261° |
| 2026-04-24 21:12 | 40.68285 | 24.60422 | 27955 ft | 498 kts | 261° |
| 2026-04-24 21:12 | 40.67937 | 24.57808 | 27852 ft | 494 kts | 261° |
| 2026-04-24 21:13 | 40.67191 | 24.52211 | 27604 ft | 492 kts | 261° |
| 2026-04-24 21:13 | 40.66597 | 24.47767 | 27439 ft | 492 kts | 261° |
| 2026-04-24 21:13 | 40.66203 | 24.44823 | 27323 ft | 493 kts | 261° |
| 2026-04-24 21:13 | 40.65605 | 24.40368 | 27143 ft | 494 kts | 261° |
| 2026-04-24 21:14 | 40.65006 | 24.35915 | 26966 ft | 493 kts | 261° |
| 2026-04-24 21:14 | 40.64402 | 24.31443 | 26787 ft | 493 kts | 261° |
| 2026-04-24 21:14 | 40.63799 | 24.26994 | 26611 ft | 494 kts | 261° |
| 2026-04-24 21:14 | 40.63195 | 24.22530 | 26391 ft | 495 kts | 261° |
| 2026-04-24 21:15 | 40.62593 | 24.18075 | 26161 ft | 495 kts | 261° |
| 2026-04-24 21:15 | 40.61990 | 24.13614 | 25940 ft | 494 kts | 261° |
| 2026-04-24 21:15 | 40.61394 | 24.09223 | 25722 ft | 493 kts | 261° |
| 2026-04-24 21:15 | 40.60791 | 24.04783 | 25489 ft | 493 kts | 261° |
| 2026-04-24 21:16 | 40.60185 | 24.00344 | 25281 ft | 492 kts | 261° |
| 2026-04-24 21:16 | 40.59579 | 23.95921 | 25095 ft | 489 kts | 261° |
| 2026-04-24 21:16 | 40.58968 | 23.91525 | 25042 ft | 488 kts | 261° |
| 2026-04-24 21:16 | 40.58350 | 23.87131 | 25029 ft | 487 kts | 261° |
| 2026-04-24 21:17 | 40.57733 | 23.82753 | 25026 ft | 487 kts | 261° |
| 2026-04-24 21:17 | 40.57114 | 23.78375 | 25030 ft | 487 kts | 261° |
| 2026-04-24 21:17 | 40.56492 | 23.73984 | 25031 ft | 488 kts | 261° |
| 2026-04-24 21:17 | 40.55878 | 23.69654 | 25034 ft | 488 kts | 261° |
| 2026-04-24 21:18 | 40.55254 | 23.65257 | 25028 ft | 489 kts | 261° |
| 2026-04-24 21:18 | 40.54629 | 23.60869 | 25030 ft | 488 kts | 261° |
| 2026-04-24 21:18 | 40.54002 | 23.56482 | 25023 ft | 488 kts | 261° |
| 2026-04-24 21:18 | 40.53372 | 23.52077 | 25037 ft | 495 kts | 261° |
| 2026-04-24 21:19 | 40.52729 | 23.47602 | 25042 ft | 501 kts | 261° |
| 2026-04-24 21:19 | 40.52513 | 23.46097 | 25040 ft | 503 kts | 261° |
| 2026-04-24 21:19 | 40.52384 | 23.45194 | 25041 ft | 504 kts | 261° |
| 2026-04-24 21:19 | 40.51889 | 23.41736 | 25039 ft | 506 kts | 261° |
| 2026-04-24 21:20 | 40.50591 | 23.32700 | 25013 ft | 501 kts | 261° |
| 2026-04-24 21:20 | 40.49944 | 23.28212 | 25019 ft | 500 kts | 261° |
| 2026-04-24 21:20 | 40.49295 | 23.23719 | 24961 ft | 502 kts | 261° |
| 2026-04-24 21:21 | 40.48638 | 23.19196 | 24832 ft | 502 kts | 260° |
| 2026-04-24 21:21 | 40.47572 | 23.14837 | 24663 ft | 501 kts | 243° |
| 2026-04-24 21:21 | 40.45596 | 23.11096 | 24559 ft | 500 kts | 226° |
| 2026-04-24 21:21 | 40.42947 | 23.08164 | 24379 ft | 498 kts | 210° |
| 2026-04-24 21:22 | 40.39840 | 23.06228 | 24187 ft | 490 kts | 194° |
| 2026-04-24 21:22 | 40.36568 | 23.05402 | 23999 ft | 482 kts | 180° |
| 2026-04-24 21:22 | 40.33245 | 23.05540 | 23805 ft | 476 kts | 167° |
| 2026-04-24 21:22 | 40.30058 | 23.06616 | 23632 ft | 469 kts | 157° |
| 2026-04-24 21:23 | 40.27012 | 23.08103 | 23406 ft | 466 kts | 154° |
| 2026-04-24 21:23 | 40.24029 | 23.09707 | 23161 ft | 459 kts | 153° |
| 2026-04-24 21:23 | 40.21113 | 23.11271 | 22761 ft | 449 kts | 154° |
| 2026-04-24 21:23 | 40.18225 | 23.12767 | 22329 ft | 441 kts | 155° |
| 2026-04-24 21:24 | 40.15377 | 23.14193 | 21875 ft | 434 kts | 155° |
| 2026-04-24 21:24 | 40.12597 | 23.15563 | 21424 ft | 419 kts | 155° |
| 2026-04-24 21:24 | 40.09946 | 23.16864 | 20985 ft | 406 kts | 155° |
| 2026-04-24 21:24 | 40.07337 | 23.18148 | 20492 ft | 395 kts | 155° |
| 2026-04-24 21:25 | 40.04804 | 23.19395 | 20073 ft | 384 kts | 155° |
| 2026-04-24 21:25 | 40.02338 | 23.20611 | 19657 ft | 374 kts | 155° |
| 2026-04-24 21:25 | 39.99934 | 23.21797 | 19240 ft | 365 kts | 155° |
| 2026-04-24 21:25 | 39.97580 | 23.22959 | 18830 ft | 357 kts | 155° |
| 2026-04-24 21:26 | 39.95302 | 23.24081 | 18421 ft | 350 kts | 155° |
| 2026-04-24 21:26 | 39.93036 | 23.25195 | 17945 ft | 344 kts | 155° |
| 2026-04-24 21:26 | 39.90811 | 23.26288 | 17468 ft | 338 kts | 155° |
| 2026-04-24 21:26 | 39.88623 | 23.27356 | 16991 ft | 333 kts | 156° |
| 2026-04-24 21:27 | 39.86494 | 23.28391 | 16557 ft | 326 kts | 156° |
| 2026-04-24 21:27 | 39.84400 | 23.29406 | 16139 ft | 315 kts | 156° |
| 2026-04-24 21:27 | 39.82372 | 23.30391 | 15691 ft | 306 kts | 156° |
| 2026-04-24 21:27 | 39.80404 | 23.31348 | 15309 ft | 299 kts | 156° |
| 2026-04-24 21:28 | 39.78468 | 23.32289 | 14946 ft | 298 kts | 156° |
| 2026-04-24 21:28 | 39.76497 | 23.33249 | 14606 ft | 306 kts | 156° |
| 2026-04-24 21:28 | 39.74482 | 23.34227 | 14245 ft | 310 kts | 156° |
| 2026-04-24 21:28 | 39.72465 | 23.35206 | 13895 ft | 308 kts | 156° |
| 2026-04-24 21:29 | 39.70750 | 23.36042 | 13561 ft | 306 kts | 156° |
| 2026-04-24 21:29 | 39.68627 | 23.37080 | 13140 ft | 305 kts | 156° |
| 2026-04-24 21:29 | 39.66649 | 23.38046 | 12742 ft | 300 kts | 156° |
| 2026-04-24 21:29 | 39.64724 | 23.38986 | 12334 ft | 291 kts | 156° |
| 2026-04-24 21:30 | 39.62863 | 23.39893 | 11978 ft | 280 kts | 155° |
| 2026-04-24 21:30 | 39.61063 | 23.40770 | 11652 ft | 273 kts | 155° |
| 2026-04-24 21:30 | 39.59297 | 23.41632 | 11351 ft | 269 kts | 155° |
| 2026-04-24 21:30 | 39.57553 | 23.42485 | 11050 ft | 273 kts | 155° |
| 2026-04-24 21:31 | 39.55742 | 23.43372 | 10724 ft | 282 kts | 155° |
| 2026-04-24 21:31 | 39.53896 | 23.44272 | 10364 ft | 284 kts | 155° |
| 2026-04-24 21:31 | 39.52047 | 23.45172 | 10007 ft | 283 kts | 155° |
| 2026-04-24 21:31 | 39.50199 | 23.46071 | 9614 ft | 283 kts | 155° |
| 2026-04-24 21:32 | 39.48360 | 23.46965 | 9216 ft | 282 kts | 155° |
| 2026-04-24 21:32 | 39.46524 | 23.47857 | 8836 ft | 281 kts | 155° |
| 2026-04-24 21:32 | 39.44714 | 23.48735 | 8546 ft | 275 kts | 155° |
| 2026-04-24 21:32 | 39.42931 | 23.49599 | 8264 ft | 272 kts | 155° |
| 2026-04-24 21:33 | 39.41169 | 23.50455 | 7989 ft | 269 kts | 155° |
| 2026-04-24 21:33 | 39.39420 | 23.51312 | 7707 ft | 267 kts | 155° |
| 2026-04-24 21:33 | 39.37673 | 23.52116 | 7432 ft | 268 kts | 158° |
| 2026-04-24 21:33 | 39.35938 | 23.52868 | 7157 ft | 263 kts | 158° |
| 2026-04-24 21:34 | 39.34242 | 23.53596 | 6860 ft | 251 kts | 158° |
| 2026-04-24 21:34 | 39.32621 | 23.54288 | 6564 ft | 239 kts | 158° |
| 2026-04-24 21:34 | 39.31079 | 23.54961 | 6307 ft | 227 kts | 157° |
| 2026-04-24 21:34 | 39.29612 | 23.55652 | 6032 ft | 221 kts | 156° |
| 2026-04-24 21:35 | 39.28177 | 23.56341 | 5826 ft | 220 kts | 156° |
| 2026-04-24 21:35 | 39.26736 | 23.57041 | 5636 ft | 222 kts | 156° |
| 2026-04-24 21:35 | 39.25292 | 23.57749 | 5432 ft | 222 kts | 156° |
| 2026-04-24 21:35 | 39.23849 | 23.58463 | 5261 ft | 222 kts | 156° |
| 2026-04-24 21:36 | 39.22408 | 23.59180 | 5117 ft | 222 kts | 156° |
| 2026-04-24 21:36 | 39.20982 | 23.59893 | 4990 ft | 222 kts | 156° |
| 2026-04-24 21:36 | 39.19538 | 23.60616 | 4856 ft | 223 kts | 156° |
| 2026-04-24 21:36 | 39.18038 | 23.61075 | 4668 ft | 224 kts | 182° |
| 2026-04-24 21:37 | 39.16527 | 23.60603 | 4570 ft | 224 kts | 195° |
| 2026-04-24 21:37 | 39.15056 | 23.59909 | 4414 ft | 224 kts | 204° |
| 2026-04-24 21:37 | 39.13663 | 23.59083 | 4262 ft | 215 kts | 205° |
| 2026-04-24 21:37 | 39.12338 | 23.58282 | 4110 ft | 207 kts | 205° |
| 2026-04-24 21:38 | 39.11050 | 23.57502 | 4008 ft | 199 kts | 205° |
| 2026-04-24 21:38 | 39.09828 | 23.56760 | 3894 ft | 196 kts | 205° |
| 2026-04-24 21:38 | 39.08587 | 23.56009 | 3764 ft | 198 kts | 205° |
| 2026-04-24 21:38 | 39.07360 | 23.55268 | 3612 ft | 187 kts | 205° |
| 2026-04-24 21:39 | 39.06234 | 23.54590 | 3434 ft | 170 kts | 205° |
| 2026-04-24 21:39 | 39.05404 | 23.53634 | 3341 ft | 162 kts | 250° |
| 2026-04-24 21:39 | 39.05150 | 23.52261 | 3265 ft | 156 kts | 256° |
| 2026-04-24 21:39 | 39.04766 | 23.50976 | 3155 ft | 151 kts | 250° |
| 2026-04-24 21:40 | 39.04369 | 23.49727 | 3049 ft | 151 kts | 251° |
| 2026-04-24 21:40 | 39.04288 | 23.48437 | 2934 ft | 145 kts | 284° |
| 2026-04-24 21:40 | 39.04439 | 23.47137 | 2875 ft | 148 kts | 280° |
| 2026-04-24 21:40 | 39.04607 | 23.45845 | 2785 ft | 145 kts | 294° |
| 2026-04-24 21:41 | 39.05317 | 23.45093 | 2657 ft | 136 kts | 357° |
| 2026-04-24 21:41 | 39.06224 | 23.45391 | 2638 ft | 136 kts | 18° |
| 2026-04-24 21:41 | 39.06965 | 23.46087 | 2499 ft | 136 kts | 65° |
| 2026-04-24 21:41 | 39.06940 | 23.47299 | 2481 ft | 142 kts | 107° |
| 2026-04-24 21:42 | 39.06381 | 23.48349 | 2386 ft | 144 kts | 138° |
| 2026-04-24 21:42 | 39.05493 | 23.48907 | 2310 ft | 145 kts | 167° |
| 2026-04-24 21:42 | 39.04545 | 23.49374 | 2200 ft | 145 kts | 138° |
| 2026-04-24 21:42 | 39.04235 | 23.50478 | 2120 ft | 137 kts | 72° |
| 2026-04-24 21:43 | 39.04894 | 23.51282 | 2109 ft | 139 kts | 9° |
| 2026-04-24 21:43 | 39.05844 | 23.51058 | 2109 ft | 141 kts | 346° |
| 2026-04-24 21:43 | 39.06766 | 23.50629 | 2039 ft | 140 kts | 338° |
| 2026-04-24 21:43 | 39.07659 | 23.50128 | 1994 ft | 141 kts | 336° |
| 2026-04-24 21:44 | 39.08471 | 23.49442 | 1928 ft | 141 kts | 321° |
| 2026-04-24 21:44 | 39.09248 | 23.48676 | 1881 ft | 141 kts | 331° |
| 2026-04-24 21:44 | 39.10102 | 23.48064 | 1871 ft | 141 kts | 339° |
| 2026-04-24 21:44 | 39.11052 | 23.47685 | 1598 ft | 144 kts | 348° |
| 2026-04-24 21:45 | 39.12016 | 23.47705 | 1264 ft | 137 kts | 21° |
| 2026-04-24 21:45 | 39.12877 | 23.48228 | 873 ft | 137 kts | 25° |
| 2026-04-24 21:45 | 39.13760 | 23.48619 | 591 ft | 130 kts | 16° |
| 2026-04-24 21:45 | 39.14702 | 23.49003 | 544 ft | 144 kts | 18° |
| 2026-04-24 21:46 | 39.15661 | 23.49443 | 381 ft | 151 kts | 19° |
| 2026-04-24 21:46 | 39.16647 | 23.49866 | 141 ft | 146 kts | 20° |
| 2026-04-24 21:46 | 39.17566 | 23.50294 | 35 ft | 128 kts | 20° |
| 2026-04-24 21:46 | 39.18084 | 23.50522 | 50 ft | 51 kts | 19° |
| 2026-04-24 21:47 | 39.18327 | 23.50629 | 59 ft | 27 kts | 21° |
| 2026-04-24 21:47 | 39.18386 | 23.50682 | 59 ft | 7 kts | 42° |
| 2026-04-24 21:47 | 39.18410 | 23.50695 | 57 ft | 2 kts | 333° |
| 2026-04-24 21:47 | 39.18407 | 23.50674 | 57 ft | 4 kts | 237° |
| 2026-04-24 21:48 | 39.18362 | 23.50650 | 60 ft | 13 kts | 200° |
| 2026-04-24 21:48 | 39.18238 | 23.50593 | 49 ft | 22 kts | 199° |
| 2026-04-24 21:48 | 39.18086 | 23.50523 | 50 ft | 24 kts | 199° |
| 2026-04-24 21:48 | 39.17952 | 23.50445 | 47 ft | 14 kts | 226° |
| 2026-04-24 21:49 | 39.17927 | 23.50380 | 45 ft | 6 kts | 252° |
| 2026-04-24 21:49 | 39.17908 | 23.50335 | 45 ft | 6 kts | 230° |
| 2026-04-24 21:49 | 39.17880 | 23.50314 | 45 ft | 9 kts | 195° |
| 2026-04-24 21:49 | 39.17827 | 23.50234 | 43 ft | 11 kts | 292° |
| 2026-04-24 21:50 | 39.17831 | 23.50223 | 43 ft | 0 kts | 295° |